createdAt,value
2018-05-13T00:00:53.993Z,65.26
2018-05-13T00:01:53.914Z,65.26
2018-05-13T00:02:53.840Z,66.03
2018-05-13T00:03:53.811Z,66.03
2018-05-13T00:04:53.713Z,65.48
2018-05-13T00:05:53.648Z,65.26
2018-05-13T00:06:53.572Z,65.20
2018-05-13T00:07:53.510Z,65.11
2018-05-13T00:08:53.437Z,65.20
2018-05-13T00:09:53.374Z,65.11
2018-05-13T00:10:53.312Z,64.62
2018-05-13T00:11:53.237Z,64.53
2018-05-13T00:12:53.166Z,64.91
2018-05-13T00:13:53.079Z,65.20
2018-05-13T00:14:53.036Z,65.68
2018-05-13T00:15:52.962Z,65.93
2018-05-13T00:16:52.882Z,66.13
2018-05-13T00:17:52.821Z,66.22
2018-05-13T00:18:52.750Z,66.41
2018-05-13T00:19:52.685Z,66.70
2018-05-13T00:20:52.611Z,66.99
2018-05-13T00:21:52.550Z,66.79
2018-05-13T00:22:52.483Z,66.22
2018-05-13T00:23:52.418Z,66.89
2018-05-13T00:24:52.330Z,66.89
2018-05-13T00:25:52.279Z,66.50
2018-05-13T00:26:52.200Z,66.41
2018-05-13T00:27:52.128Z,66.44
2018-05-13T00:28:52.085Z,66.89
2018-05-13T00:29:52.008Z,68.04
2018-05-13T00:30:51.931Z,68.51
2018-05-13T00:31:51.862Z,68.80
2018-05-13T00:32:51.795Z,68.41
2018-05-13T00:33:51.732Z,69.27
2018-05-13T00:34:51.669Z,69.18
2018-05-13T00:35:51.599Z,69.18
2018-05-13T00:36:51.532Z,69.24
2018-05-13T00:37:51.460Z,69.91
2018-05-13T00:38:51.388Z,70.20
2018-05-13T00:39:51.315Z,69.24
2018-05-13T00:40:51.247Z,69.18
2018-05-13T00:41:51.180Z,69.37
2018-05-13T00:42:51.112Z,68.61
2018-05-13T00:43:51.048Z,67.94
2018-05-13T00:44:50.971Z,68.32
2018-05-13T00:45:50.901Z,68.32
2018-05-13T00:46:50.829Z,69.24
2018-05-13T00:47:50.767Z,70.39
2018-05-13T00:48:50.710Z,70.87
2018-05-13T00:49:50.622Z,70.96
2018-05-13T00:50:50.560Z,70.96
2018-05-13T00:51:50.503Z,71.72
2018-05-13T00:52:50.424Z,71.72
2018-05-13T00:53:50.367Z,72.11
2018-05-13T00:54:50.288Z,72.11
2018-05-13T00:55:50.233Z,71.72
2018-05-13T00:56:50.162Z,71.82
2018-05-13T00:57:50.091Z,71.72
2018-05-13T00:58:50.028Z,71.72
2018-05-13T00:59:49.945Z,71.25
2018-05-13T01:00:49.884Z,71.06
2018-05-13T01:01:49.818Z,70.29
2018-05-13T01:02:49.806Z,70.58
2018-05-13T01:03:49.666Z,70.42
2018-05-13T01:04:49.613Z,69.95
2018-05-13T01:05:49.540Z,69.27
2018-05-13T01:06:49.467Z,69.18
2018-05-13T01:07:49.396Z,70.01
2018-05-13T01:08:49.342Z,71.34
2018-05-13T01:09:49.269Z,72.11
2018-05-13T01:10:49.182Z,71.82
2018-05-13T01:11:49.119Z,71.82
2018-05-13T01:12:49.044Z,71.72
2018-05-13T01:13:48.982Z,71.34
2018-05-13T01:14:48.928Z,71.06
2018-05-13T01:15:48.840Z,70.96
2018-05-13T01:16:48.785Z,71.06
2018-05-13T01:17:48.722Z,70.77
2018-05-13T01:18:48.647Z,70.96
2018-05-13T01:19:48.577Z,71.15
2018-05-13T01:20:48.510Z,71.53
2018-05-13T01:21:48.429Z,72.17
2018-05-13T01:22:48.365Z,72.74
2018-05-13T01:23:48.313Z,73.22
2018-05-13T01:24:48.226Z,72.93
2018-05-13T01:25:48.163Z,72.26
2018-05-13T01:26:48.103Z,71.44
2018-05-13T01:27:48.031Z,70.96
2018-05-13T01:28:47.962Z,70.58
2018-05-13T01:29:47.885Z,70.29
2018-05-13T01:30:47.819Z,70.20
2018-05-13T01:31:47.750Z,69.91
2018-05-13T01:32:47.687Z,69.91
2018-05-13T01:33:47.629Z,70.39
2018-05-13T01:34:47.550Z,71.21
2018-05-13T01:35:47.484Z,71.41
2018-05-13T01:36:47.404Z,71.25
2018-05-13T01:37:47.337Z,71.06
2018-05-13T01:38:47.279Z,70.58
2018-05-13T01:39:47.203Z,70.48
2018-05-13T01:40:47.153Z,70.48
2018-05-13T01:41:47.060Z,70.39
2018-05-13T01:42:46.989Z,69.34
2018-05-13T01:43:46.932Z,69.24
2018-05-13T01:44:46.863Z,69.34
2018-05-13T01:45:46.788Z,69.15
2018-05-13T01:46:46.738Z,69.34
2018-05-13T01:47:46.664Z,69.24
2018-05-13T01:48:46.576Z,69.24
2018-05-13T01:49:46.530Z,69.15
2018-05-13T01:50:46.449Z,69.15
2018-05-13T01:51:46.392Z,69.24
2018-05-13T01:52:46.307Z,69.62
2018-05-13T01:53:46.238Z,70.48
2018-05-13T01:54:46.172Z,71.88
2018-05-13T01:55:46.101Z,71.78
2018-05-13T01:56:46.039Z,71.59
2018-05-13T01:57:45.961Z,72.17
2018-05-13T01:58:45.907Z,72.55
2018-05-13T01:59:45.828Z,72.45
2018-05-13T02:00:45.756Z,71.98
2018-05-13T02:01:45.686Z,71.78
2018-05-13T02:02:45.619Z,71.06
2018-05-13T02:03:45.562Z,71.21
2018-05-13T02:04:45.497Z,71.06
2018-05-13T02:05:45.419Z,70.83
2018-05-13T02:06:45.347Z,71.78
2018-05-13T02:07:45.282Z,71.78
2018-05-13T02:08:45.223Z,71.59
2018-05-13T02:09:45.136Z,71.88
2018-05-13T02:10:45.072Z,71.15
2018-05-13T02:11:45.012Z,70.83
2018-05-13T02:12:44.945Z,71.06
2018-05-13T02:13:44.864Z,70.87
2018-05-13T02:14:44.795Z,70.77
2018-05-13T02:15:44.737Z,70.67
2018-05-13T02:16:44.661Z,70.39
2018-05-13T02:17:44.593Z,70.48
2018-05-13T02:18:44.520Z,71.21
2018-05-13T02:19:44.455Z,71.82
2018-05-13T02:20:44.394Z,70.83
2018-05-13T02:21:44.331Z,70.48
2018-05-13T02:22:44.254Z,70.39
2018-05-13T02:23:44.177Z,71.12
2018-05-13T02:24:44.123Z,71.31
2018-05-13T02:25:44.038Z,71.41
2018-05-13T02:26:43.975Z,71.78
2018-05-13T02:27:43.902Z,71.50
2018-05-13T02:28:43.833Z,71.88
2018-05-13T02:29:43.785Z,71.98
2018-05-13T02:30:43.697Z,71.59
2018-05-13T02:31:43.640Z,71.88
2018-05-13T02:32:43.572Z,71.78
2018-05-13T02:33:43.498Z,71.88
2018-05-13T02:34:43.414Z,72.45
2018-05-13T02:35:43.363Z,72.55
2018-05-13T02:36:43.292Z,73.41
2018-05-13T02:37:43.215Z,73.69
2018-05-13T02:38:43.142Z,73.60
2018-05-13T02:39:43.080Z,73.60
2018-05-13T02:40:43.011Z,73.32
2018-05-13T02:41:42.949Z,73.32
2018-05-13T02:42:42.904Z,73.32
2018-05-13T02:43:42.808Z,73.03
2018-05-13T02:44:42.732Z,72.83
2018-05-13T02:45:42.664Z,71.98
2018-05-13T02:46:42.632Z,72.36
2018-05-13T02:47:42.531Z,72.36
2018-05-13T02:48:42.470Z,72.07
2018-05-13T02:49:42.391Z,72.55
2018-05-13T02:50:42.313Z,72.83
2018-05-13T02:51:42.255Z,73.03
2018-05-13T02:52:42.181Z,72.17
2018-05-13T02:53:42.102Z,72.26
2018-05-13T02:54:42.040Z,73.03
2018-05-13T02:55:42.009Z,73.22
2018-05-13T02:56:41.893Z,73.50
2018-05-13T02:57:41.840Z,73.69
2018-05-13T02:58:41.774Z,73.32
2018-05-13T02:59:41.689Z,73.50
2018-05-13T03:00:41.636Z,73.03
2018-05-13T03:01:41.554Z,73.03
2018-05-13T03:02:41.489Z,73.12
2018-05-13T03:03:41.420Z,73.41
2018-05-13T03:04:41.351Z,73.03
2018-05-13T03:05:41.290Z,73.60
2018-05-13T03:06:41.217Z,73.18
2018-05-13T03:07:41.142Z,73.60
2018-05-13T03:08:41.072Z,73.69
2018-05-13T03:09:41.006Z,72.55
2018-05-13T03:10:40.945Z,72.36
2018-05-13T03:11:40.865Z,73.66
2018-05-13T03:12:40.794Z,74.61
2018-05-13T03:13:40.738Z,74.42
2018-05-13T03:14:40.656Z,74.13
2018-05-13T03:15:40.588Z,75.28
2018-05-13T03:16:40.540Z,75.18
2018-05-13T03:17:40.513Z,74.71
2018-05-13T03:18:40.385Z,74.42
2018-05-13T03:19:40.316Z,74.04
2018-05-13T03:20:40.250Z,73.47
2018-05-13T03:21:40.176Z,72.74
2018-05-13T03:22:40.112Z,71.78
2018-05-13T03:23:40.042Z,71.59
2018-05-13T03:24:39.974Z,71.41
2018-05-13T03:25:39.895Z,70.73
2018-05-13T03:26:39.848Z,71.21
2018-05-13T03:27:39.753Z,71.12
2018-05-13T03:28:39.684Z,71.21
2018-05-13T03:29:39.622Z,70.92
2018-05-13T03:30:39.553Z,71.75
2018-05-13T03:31:39.477Z,71.75
2018-05-13T03:32:39.406Z,72.23
2018-05-13T03:33:39.333Z,71.56
2018-05-13T03:34:39.278Z,71.50
2018-05-13T03:35:39.212Z,72.13
2018-05-13T03:36:39.154Z,72.42
2018-05-13T03:37:39.078Z,71.94
2018-05-13T03:38:39.005Z,72.23
2018-05-13T03:39:38.919Z,72.42
2018-05-13T03:40:38.902Z,72.32
2018-05-13T03:41:38.783Z,72.23
2018-05-13T03:42:38.716Z,73.18
2018-05-13T03:43:38.655Z,73.08
2018-05-13T03:44:38.583Z,73.28
2018-05-13T03:45:38.542Z,72.42
2018-05-13T03:46:38.435Z,72.61
2018-05-13T03:47:38.372Z,72.42
2018-05-13T03:48:38.308Z,73.18
2018-05-13T03:49:38.247Z,72.80
2018-05-13T03:50:38.161Z,72.89
2018-05-13T03:51:38.100Z,72.32
2018-05-13T03:52:38.027Z,71.46
2018-05-13T03:53:37.953Z,71.56
2018-05-13T03:54:37.892Z,72.23
2018-05-13T03:55:37.818Z,72.89
2018-05-13T03:56:37.746Z,73.72
2018-05-13T03:57:37.672Z,74.19
2018-05-13T03:58:37.609Z,75.34
2018-05-13T03:59:37.533Z,75.62
2018-05-13T04:00:37.474Z,76.01
2018-05-13T04:01:37.389Z,75.34
2018-05-13T04:02:37.319Z,75.34
2018-05-13T04:03:37.254Z,75.53
2018-05-13T04:04:37.185Z,74.10
2018-05-13T04:05:37.119Z,74.57
2018-05-13T04:06:37.054Z,75.15
2018-05-13T04:07:36.987Z,74.86
2018-05-13T04:08:36.912Z,74.29
2018-05-13T04:09:36.848Z,73.85
2018-05-13T04:10:36.778Z,73.37
2018-05-13T04:11:36.706Z,73.18
2018-05-13T04:12:36.637Z,73.08
2018-05-13T04:13:36.563Z,72.13
2018-05-13T04:14:36.510Z,71.94
2018-05-13T04:15:36.416Z,72.99
2018-05-13T04:16:36.361Z,73.18
2018-05-13T04:17:36.281Z,72.61
2018-05-13T04:18:36.219Z,74.01
2018-05-13T04:19:36.147Z,74.57
2018-05-13T04:20:36.078Z,74.29
2018-05-13T04:21:36.007Z,73.91
2018-05-13T04:22:35.930Z,73.43
2018-05-13T04:23:35.874Z,73.33
2018-05-13T04:24:35.791Z,73.43
2018-05-13T04:25:35.736Z,73.28
2018-05-13T04:26:35.655Z,73.08
2018-05-13T04:27:35.578Z,72.71
2018-05-13T04:28:35.517Z,72.09
2018-05-13T04:29:35.452Z,72.09
2018-05-13T04:30:35.383Z,72.13
2018-05-13T04:31:35.323Z,72.28
2018-05-13T04:32:35.246Z,71.66
2018-05-13T04:33:35.184Z,71.37
2018-05-13T04:34:35.097Z,70.32
2018-05-13T04:35:35.060Z,70.51
2018-05-13T04:36:34.978Z,70.51
2018-05-13T04:37:34.895Z,71.84
2018-05-13T04:38:34.823Z,72.09
2018-05-13T04:39:34.760Z,72.86
2018-05-13T04:40:34.682Z,72.86
2018-05-13T04:41:34.615Z,72.99
2018-05-13T04:42:34.543Z,72.13
2018-05-13T04:43:34.475Z,71.84
2018-05-13T04:44:34.412Z,71.84
2018-05-13T04:45:34.342Z,70.89
2018-05-13T04:46:34.284Z,70.13
2018-05-13T04:47:34.190Z,69.78
2018-05-13T04:48:34.125Z,69.40
2018-05-13T04:49:34.058Z,68.92
2018-05-13T04:50:33.989Z,69.93
2018-05-13T04:51:33.917Z,70.22
2018-05-13T04:52:33.856Z,70.51
2018-05-13T04:53:33.787Z,70.98
2018-05-13T04:54:33.724Z,71.27
2018-05-13T04:55:33.649Z,71.84
2018-05-13T04:56:33.579Z,72.23
2018-05-13T04:57:33.501Z,73.18
2018-05-13T04:58:33.426Z,72.76
2018-05-13T04:59:33.366Z,72.99
2018-05-13T05:00:33.289Z,72.51
2018-05-13T05:01:33.229Z,72.61
2018-05-13T05:02:33.158Z,72.42
2018-05-13T05:03:33.093Z,72.42
2018-05-13T05:04:33.015Z,72.23
2018-05-13T05:05:32.948Z,71.66
2018-05-13T05:06:32.882Z,71.66
2018-05-13T05:07:32.805Z,72.03
2018-05-13T05:08:32.735Z,71.66
2018-05-13T05:09:32.679Z,72.71
2018-05-13T05:10:32.590Z,73.08
2018-05-13T05:11:32.524Z,73.18
2018-05-13T05:12:32.448Z,73.08
2018-05-13T05:13:32.397Z,73.47
2018-05-13T05:14:32.337Z,73.56
2018-05-13T05:15:32.255Z,73.81
2018-05-13T05:16:32.186Z,74.19
2018-05-13T05:17:32.112Z,74.32
2018-05-13T05:18:32.054Z,74.77
2018-05-13T05:19:31.975Z,75.72
2018-05-13T05:20:31.906Z,76.01
2018-05-13T05:21:31.843Z,75.91
2018-05-13T05:22:31.753Z,75.24
2018-05-13T05:23:31.701Z,75.53
2018-05-13T05:24:31.618Z,75.43
2018-05-13T05:25:31.558Z,75.37
2018-05-13T05:26:31.485Z,74.71
2018-05-13T05:27:31.418Z,73.56
2018-05-13T05:28:31.353Z,74.04
2018-05-13T05:29:31.284Z,73.75
2018-05-13T05:30:31.214Z,73.08
2018-05-13T05:31:31.143Z,72.93
2018-05-13T05:32:31.074Z,72.89
2018-05-13T05:33:31.004Z,73.28
2018-05-13T05:34:30.924Z,73.28
2018-05-13T05:35:30.873Z,73.94
2018-05-13T05:36:30.805Z,73.75
2018-05-13T05:37:30.724Z,73.85
2018-05-13T05:38:30.659Z,73.37
2018-05-13T05:39:30.580Z,73.56
2018-05-13T05:40:30.515Z,73.28
2018-05-13T05:41:30.444Z,72.83
2018-05-13T05:42:30.376Z,71.94
2018-05-13T05:43:30.315Z,72.89
2018-05-13T05:44:30.237Z,72.80
2018-05-13T05:45:30.167Z,72.42
2018-05-13T05:46:30.111Z,72.42
2018-05-13T05:47:30.033Z,72.17
2018-05-13T05:48:30.099Z,71.78
2018-05-13T05:49:29.903Z,71.50
2018-05-13T05:50:29.818Z,70.92
2018-05-13T05:51:29.765Z,71.12
2018-05-13T05:52:29.690Z,70.54
2018-05-13T05:53:29.618Z,70.36
2018-05-13T05:54:29.551Z,70.16
2018-05-13T05:55:29.484Z,68.92
2018-05-13T05:56:29.425Z,68.67
2018-05-13T05:57:29.344Z,68.00
2018-05-13T05:58:29.321Z,67.91
2018-05-13T05:59:29.206Z,67.05
2018-05-13T06:00:29.138Z,67.14
2018-05-13T06:01:29.071Z,67.05
2018-05-13T06:02:29.027Z,66.76
2018-05-13T06:03:28.934Z,67.05
2018-05-13T06:04:28.860Z,67.05
2018-05-13T06:05:28.804Z,67.05
2018-05-13T06:06:28.731Z,66.60
2018-05-13T06:07:28.671Z,66.13
2018-05-13T06:08:28.596Z,65.55
2018-05-13T06:09:28.535Z,64.98
2018-05-13T06:10:28.461Z,65.17
2018-05-13T06:11:28.400Z,65.64
2018-05-13T06:12:28.330Z,66.28
2018-05-13T06:13:28.267Z,66.09
2018-05-13T06:14:28.192Z,66.41
2018-05-13T06:15:28.123Z,66.03
2018-05-13T06:16:28.045Z,66.09
2018-05-13T06:17:28.020Z,66.56
2018-05-13T06:18:27.922Z,67.43
2018-05-13T06:19:27.844Z,67.43
2018-05-13T06:20:27.783Z,67.05
2018-05-13T06:21:27.718Z,67.14
2018-05-13T06:22:27.649Z,66.03
2018-05-13T06:23:27.588Z,65.93
2018-05-13T06:24:27.530Z,65.26
2018-05-13T06:25:27.446Z,64.88
2018-05-13T06:26:27.387Z,64.72
2018-05-13T06:27:27.314Z,63.48
2018-05-13T06:28:27.242Z,63.00
2018-05-13T06:29:27.182Z,62.87
2018-05-13T06:30:27.120Z,62.97
2018-05-13T06:31:27.091Z,63.19
2018-05-13T06:32:26.990Z,63.00
2018-05-13T06:33:26.924Z,62.43
2018-05-13T06:34:26.848Z,62.33
2018-05-13T06:35:26.794Z,61.57
2018-05-13T06:36:26.714Z,61.66
2018-05-13T06:37:26.644Z,61.28
2018-05-13T06:38:26.574Z,60.77
2018-05-13T06:39:26.528Z,61.28
2018-05-13T06:40:26.436Z,61.09
2018-05-13T06:41:26.379Z,61.47
2018-05-13T06:42:26.312Z,61.28
2018-05-13T06:43:26.254Z,61.47
2018-05-13T06:44:26.179Z,60.90
2018-05-13T06:45:26.102Z,61.47
2018-05-13T06:46:26.053Z,61.09
2018-05-13T06:47:25.972Z,60.99
2018-05-13T06:48:25.917Z,60.52
2018-05-13T06:49:25.842Z,60.61
2018-05-13T06:50:25.775Z,60.52
2018-05-13T06:51:25.795Z,60.23
2018-05-13T06:52:25.657Z,60.04
2018-05-13T06:53:25.590Z,60.33
2018-05-13T06:54:25.527Z,60.52
2018-05-13T06:55:25.450Z,60.52
2018-05-13T06:56:25.379Z,61.28
2018-05-13T06:57:25.379Z,60.80
2018-05-13T06:58:25.256Z,61.72
2018-05-13T06:59:25.180Z,61.92
2018-05-13T07:00:25.119Z,61.92
2018-05-13T07:01:25.054Z,62.11
2018-05-13T07:02:24.989Z,61.63
2018-05-13T07:03:24.915Z,61.54
2018-05-13T07:04:24.850Z,61.82
2018-05-13T07:05:24.821Z,61.47
2018-05-13T07:06:24.991Z,60.80
2018-05-13T07:07:24.647Z,60.80
2018-05-13T07:08:24.683Z,60.80
2018-05-13T07:09:24.523Z,60.80
2018-05-13T07:10:24.462Z,60.80
2018-05-13T07:11:24.428Z,60.71
2018-05-13T07:12:24.327Z,61.35
2018-05-13T07:13:24.251Z,61.63
2018-05-13T07:14:24.198Z,61.47
2018-05-13T07:15:24.125Z,60.04
2018-05-13T07:16:24.117Z,59.37
2018-05-13T07:17:23.989Z,59.18
2018-05-13T07:18:23.919Z,59.37
2018-05-13T07:19:23.858Z,58.73
2018-05-13T07:20:23.798Z,58.32
2018-05-13T07:21:23.728Z,58.41
2018-05-13T07:22:23.661Z,57.68
2018-05-13T07:23:23.598Z,57.58
2018-05-13T07:24:23.522Z,57.29
2018-05-13T07:25:23.446Z,57.51
2018-05-13T07:26:23.400Z,57.04
2018-05-13T07:27:23.340Z,56.75
2018-05-13T07:28:23.253Z,56.56
2018-05-13T07:29:23.197Z,56.62
2018-05-13T07:30:23.129Z,57.87
2018-05-13T07:31:23.065Z,57.68
2018-05-13T07:32:22.994Z,57.75
2018-05-13T07:33:22.941Z,58.12
2018-05-13T07:34:22.872Z,58.70
2018-05-13T07:35:22.806Z,58.25
2018-05-13T07:36:22.740Z,58.54
2018-05-13T07:37:22.663Z,58.44
2018-05-13T07:38:22.590Z,58.63
2018-05-13T07:39:22.550Z,58.15
2018-05-13T07:40:22.467Z,58.44
2018-05-13T07:41:22.399Z,57.68
2018-05-13T07:42:22.341Z,57.68
2018-05-13T07:43:22.358Z,57.20
2018-05-13T07:44:22.205Z,57.20
2018-05-13T07:45:22.134Z,57.77
2018-05-13T07:46:22.079Z,57.68
2018-05-13T07:47:22.013Z,57.77
2018-05-13T07:48:21.944Z,57.29
2018-05-13T07:49:21.878Z,57.68
2018-05-13T07:50:21.799Z,57.58
2018-05-13T07:51:21.756Z,57.23
2018-05-13T07:52:21.684Z,57.48
2018-05-13T07:53:21.634Z,56.75
2018-05-13T07:54:21.552Z,57.80
2018-05-13T07:55:21.485Z,57.87
2018-05-13T07:56:21.416Z,57.77
2018-05-13T07:57:21.348Z,58.34
2018-05-13T07:58:21.292Z,58.25
2018-05-13T07:59:21.216Z,58.44
2018-05-13T08:00:21.144Z,58.92
2018-05-13T08:01:21.089Z,58.73
2018-05-13T08:02:21.030Z,58.92
2018-05-13T08:03:20.952Z,58.83
2018-05-13T08:04:20.885Z,59.11
2018-05-13T08:05:20.823Z,58.54
2018-05-13T08:06:20.761Z,59.30
2018-05-13T08:07:20.689Z,59.27
2018-05-13T08:08:20.626Z,59.56
2018-05-13T08:09:20.571Z,59.78
2018-05-13T08:10:20.493Z,59.49
2018-05-13T08:11:20.439Z,59.66
2018-05-13T08:12:20.355Z,59.88
2018-05-13T08:13:20.300Z,59.30
2018-05-13T08:14:20.234Z,59.49
2018-05-13T08:15:20.159Z,58.83
2018-05-13T08:16:20.101Z,59.05
2018-05-13T08:17:20.024Z,58.28
2018-05-13T08:18:19.959Z,57.90
2018-05-13T08:19:19.928Z,57.80
2018-05-13T08:20:19.874Z,57.99
2018-05-13T08:21:19.775Z,57.61
2018-05-13T08:22:19.702Z,57.51
2018-05-13T08:23:19.635Z,57.04
2018-05-13T08:24:19.578Z,57.23
2018-05-13T08:25:19.510Z,56.87
2018-05-13T08:26:19.446Z,56.49
2018-05-13T08:27:19.379Z,56.30
2018-05-13T08:28:19.316Z,55.73
2018-05-13T08:29:19.236Z,55.91
2018-05-13T08:30:19.168Z,56.01
2018-05-13T08:31:19.112Z,55.82
2018-05-13T08:32:19.047Z,55.91
2018-05-13T08:33:18.984Z,56.20
2018-05-13T08:34:18.917Z,56.17
2018-05-13T08:35:18.847Z,56.37
2018-05-13T08:36:18.833Z,56.56
2018-05-13T08:37:18.726Z,56.46
2018-05-13T08:38:18.645Z,56.56
2018-05-13T08:39:18.599Z,56.46
2018-05-13T08:40:18.528Z,56.65
2018-05-13T08:41:18.462Z,56.46
2018-05-13T08:42:18.413Z,56.75
2018-05-13T08:43:18.321Z,56.37
2018-05-13T08:44:18.264Z,56.56
2018-05-13T08:45:18.195Z,56.20
2018-05-13T08:46:18.138Z,56.68
2018-05-13T08:47:18.065Z,56.39
2018-05-13T08:48:17.998Z,56.01
2018-05-13T08:49:17.931Z,55.91
2018-05-13T08:50:17.862Z,55.73
2018-05-13T08:51:17.812Z,55.05
2018-05-13T08:52:17.752Z,54.96
2018-05-13T08:53:17.673Z,55.24
2018-05-13T08:54:17.607Z,55.05
2018-05-13T08:55:17.539Z,54.89
2018-05-13T08:56:17.525Z,54.57
2018-05-13T08:57:17.405Z,54.60
2018-05-13T08:58:17.340Z,54.28
2018-05-13T08:59:17.272Z,54.86
2018-05-13T09:00:17.214Z,55.24
2018-05-13T09:01:17.140Z,55.34
2018-05-13T09:02:17.113Z,55.24
2018-05-13T09:03:17.009Z,55.34
2018-05-13T09:04:16.953Z,54.86
2018-05-13T09:05:16.882Z,55.22
2018-05-13T09:06:16.823Z,55.60
2018-05-13T09:07:16.757Z,55.53
2018-05-13T09:08:16.676Z,55.41
2018-05-13T09:09:16.648Z,55.63
2018-05-13T09:10:16.554Z,56.01
2018-05-13T09:11:16.501Z,55.24
2018-05-13T09:12:16.429Z,54.96
2018-05-13T09:13:16.347Z,54.77
2018-05-13T09:14:16.372Z,53.97
2018-05-13T09:15:16.220Z,54.28
2018-05-13T09:16:16.161Z,54.10
2018-05-13T09:17:16.093Z,53.71
2018-05-13T09:18:16.037Z,54.10
2018-05-13T09:19:15.959Z,53.16
2018-05-13T09:20:15.901Z,52.87
2018-05-13T09:21:15.839Z,52.59
2018-05-13T09:22:15.771Z,52.56
2018-05-13T09:23:15.701Z,52.95
2018-05-13T09:24:15.646Z,52.95
2018-05-13T09:25:15.563Z,53.81
2018-05-13T09:26:15.499Z,53.91
2018-05-13T09:27:15.432Z,53.91
2018-05-13T09:28:15.361Z,53.91
2018-05-13T09:29:15.309Z,53.91
2018-05-13T09:30:15.245Z,53.91
2018-05-13T09:31:15.184Z,53.42
2018-05-13T09:32:15.110Z,53.14
2018-05-13T09:33:15.046Z,53.04
2018-05-13T09:34:14.988Z,52.56
2018-05-13T09:35:14.915Z,52.69
2018-05-13T09:36:14.840Z,52.66
2018-05-13T09:37:14.790Z,52.78
2018-05-13T09:38:14.731Z,52.78
2018-05-13T09:39:14.648Z,52.59
2018-05-13T09:40:14.588Z,52.50
2018-05-13T09:41:14.534Z,52.40
2018-05-13T09:42:14.458Z,52.40
2018-05-13T09:43:14.411Z,52.01
2018-05-13T09:44:14.331Z,51.92
2018-05-13T09:45:14.264Z,52.11
2018-05-13T09:46:14.197Z,52.20
2018-05-13T09:47:14.132Z,52.11
2018-05-13T09:48:14.070Z,52.11
2018-05-13T09:49:14.004Z,52.09
2018-05-13T09:50:13.946Z,52.01
2018-05-13T09:51:13.965Z,52.30
2018-05-13T09:52:13.802Z,52.11
2018-05-13T09:53:13.735Z,51.82
2018-05-13T09:54:13.673Z,52.20
2018-05-13T09:55:13.606Z,52.11
2018-05-13T09:56:13.552Z,52.01
2018-05-13T09:57:13.480Z,51.92
2018-05-13T09:58:13.423Z,51.15
2018-05-13T09:59:13.352Z,51.18
2018-05-13T10:00:13.272Z,50.89
2018-05-13T10:01:15.024Z,50.70
2018-05-13T10:02:13.160Z,50.87
2018-05-13T10:03:13.088Z,51.34
2018-05-13T10:04:13.048Z,52.20
2018-05-13T10:05:12.952Z,52.01
2018-05-13T10:06:12.884Z,52.11
2018-05-13T10:07:12.848Z,51.28
2018-05-13T10:08:12.762Z,50.60
2018-05-13T10:09:12.702Z,51.18
2018-05-13T10:10:12.631Z,50.51
2018-05-13T10:11:12.566Z,50.32
2018-05-13T10:12:12.502Z,50.34
2018-05-13T10:13:12.431Z,50.15
2018-05-13T10:14:12.370Z,50.05
2018-05-13T10:15:12.297Z,50.34
2018-05-13T10:16:12.246Z,50.24
2018-05-13T10:17:12.167Z,50.34
2018-05-13T10:18:12.110Z,50.22
2018-05-13T10:19:12.039Z,50.12
2018-05-13T10:20:11.967Z,50.03
2018-05-13T10:21:11.905Z,49.84
2018-05-13T10:22:11.838Z,50.48
2018-05-13T10:23:11.786Z,51.06
2018-05-13T10:24:11.724Z,51.25
2018-05-13T10:25:11.662Z,51.15
2018-05-13T10:26:11.588Z,51.63
2018-05-13T10:27:11.536Z,52.01
2018-05-13T10:28:11.462Z,51.63
2018-05-13T10:29:11.386Z,50.99
2018-05-13T10:30:11.326Z,50.22
2018-05-13T10:31:11.264Z,49.93
2018-05-13T10:32:11.204Z,50.22
2018-05-13T10:33:11.129Z,49.65
2018-05-13T10:34:11.063Z,49.65
2018-05-13T10:35:11.004Z,50.22
2018-05-13T10:36:10.937Z,50.99
2018-05-13T10:37:10.874Z,51.18
2018-05-13T10:38:10.808Z,50.60
2018-05-13T10:39:10.737Z,50.05
2018-05-13T10:40:10.674Z,50.41
2018-05-13T10:41:10.609Z,49.86
2018-05-13T10:42:10.539Z,49.74
2018-05-13T10:43:10.473Z,49.57
2018-05-13T10:44:10.400Z,49.67
2018-05-13T10:45:10.358Z,49.38
2018-05-13T10:46:10.272Z,49.48
2018-05-13T10:47:10.224Z,49.10
2018-05-13T10:48:10.140Z,48.78
2018-05-13T10:49:10.085Z,49.84
2018-05-13T10:50:10.032Z,50.12
2018-05-13T10:51:09.961Z,50.51
2018-05-13T10:52:09.886Z,49.84
2018-05-13T10:53:09.827Z,50.12
2018-05-13T10:54:09.761Z,49.84
2018-05-13T10:55:09.697Z,50.03
2018-05-13T10:56:09.635Z,49.93
2018-05-13T10:57:09.567Z,50.12
2018-05-13T10:58:09.492Z,49.74
2018-05-13T10:59:09.424Z,49.93
2018-05-13T11:00:09.370Z,50.32
2018-05-13T11:01:09.319Z,50.79
2018-05-13T11:02:09.243Z,51.28
2018-05-13T11:03:09.181Z,51.37
2018-05-13T11:04:09.120Z,51.18
2018-05-13T11:05:09.040Z,50.99
2018-05-13T11:06:09.005Z,50.70
2018-05-13T11:07:08.915Z,50.99
2018-05-13T11:08:08.895Z,50.77
2018-05-13T11:09:08.786Z,51.46
2018-05-13T11:10:08.788Z,51.37
2018-05-13T11:11:08.638Z,50.51
2018-05-13T11:12:08.584Z,50.60
2018-05-13T11:13:08.526Z,49.74
2018-05-13T11:14:08.463Z,49.84
2018-05-13T11:15:08.381Z,50.41
2018-05-13T11:16:08.437Z,50.22
2018-05-13T11:17:08.264Z,50.48
2018-05-13T11:18:08.210Z,50.89
2018-05-13T11:19:08.113Z,50.99
2018-05-13T11:20:08.068Z,50.99
2018-05-13T11:21:08.006Z,50.99
2018-05-13T11:22:07.932Z,50.22
2018-05-13T11:23:07.896Z,50.41
2018-05-13T11:24:07.821Z,50.41
2018-05-13T11:25:07.739Z,50.12
2018-05-13T11:26:07.664Z,49.96
2018-05-13T11:27:07.604Z,49.57
2018-05-13T11:28:07.540Z,49.57
2018-05-13T11:29:07.463Z,49.67
2018-05-13T11:30:07.403Z,49.67
2018-05-13T11:31:07.386Z,49.96
2018-05-13T11:32:07.279Z,49.86
2018-05-13T11:33:07.216Z,49.86
2018-05-13T11:34:07.144Z,49.96
2018-05-13T11:35:07.077Z,49.96
2018-05-13T11:36:07.027Z,49.19
2018-05-13T11:37:06.935Z,49.65
2018-05-13T11:38:06.873Z,49.55
2018-05-13T11:39:06.807Z,49.84
2018-05-13T11:40:06.755Z,50.22
2018-05-13T11:41:06.691Z,50.12
2018-05-13T11:42:06.627Z,50.22
2018-05-13T11:43:06.545Z,49.96
2018-05-13T11:44:06.479Z,50.53
2018-05-13T11:45:06.404Z,49.93
2018-05-13T11:46:06.349Z,50.15
2018-05-13T11:47:06.288Z,49.67
2018-05-13T11:48:06.226Z,49.38
2018-05-13T11:49:06.151Z,48.61
2018-05-13T11:50:06.093Z,48.80
2018-05-13T11:51:06.020Z,48.23
2018-05-13T11:52:05.963Z,48.43
2018-05-13T11:53:05.973Z,48.61
2018-05-13T11:54:05.891Z,48.71
2018-05-13T11:55:05.760Z,48.52
2018-05-13T11:56:05.702Z,48.80
2018-05-13T11:57:05.625Z,48.52
2018-05-13T11:58:05.555Z,48.23
2018-05-13T11:59:05.517Z,47.49
2018-05-13T12:00:05.421Z,47.49
2018-05-13T12:01:05.378Z,47.49
2018-05-13T12:02:05.325Z,47.20
2018-05-13T12:03:05.231Z,47.77
2018-05-13T12:04:05.169Z,47.58
2018-05-13T12:05:05.105Z,47.77
2018-05-13T12:06:05.054Z,47.39
2018-05-13T12:07:05.043Z,47.39
2018-05-13T12:08:04.905Z,47.20
2018-05-13T12:09:04.840Z,47.39
2018-05-13T12:10:04.769Z,47.10
2018-05-13T12:11:04.707Z,47.77
2018-05-13T12:12:04.660Z,47.49
2018-05-13T12:13:04.572Z,48.35
2018-05-13T12:14:04.520Z,48.44
2018-05-13T12:15:04.491Z,48.54
2018-05-13T12:16:04.383Z,48.44
2018-05-13T12:17:04.318Z,48.07
2018-05-13T12:18:04.251Z,48.07
2018-05-13T12:19:04.179Z,48.16
2018-05-13T12:20:04.124Z,47.49
2018-05-13T12:21:04.119Z,47.30
2018-05-13T12:22:03.990Z,47.20
2018-05-13T12:23:03.913Z,47.10
2018-05-13T12:24:03.858Z,47.77
2018-05-13T12:25:03.786Z,47.49
2018-05-13T12:26:03.729Z,47.68
2018-05-13T12:27:03.668Z,47.10
2018-05-13T12:28:03.588Z,47.58
2018-05-13T12:29:03.634Z,47.77
2018-05-13T12:30:03.469Z,47.10
2018-05-13T12:31:03.393Z,47.39
2018-05-13T12:32:03.334Z,47.30
2018-05-13T12:33:03.267Z,47.30
2018-05-13T12:34:03.201Z,47.13
2018-05-13T12:35:03.135Z,46.84
2018-05-13T12:36:03.061Z,46.26
2018-05-13T12:37:03.023Z,46.91
2018-05-13T12:38:02.947Z,46.72
2018-05-13T12:39:02.876Z,46.72
2018-05-13T12:40:02.856Z,47.10
2018-05-13T12:41:02.734Z,47.10
2018-05-13T12:42:02.663Z,47.10
2018-05-13T12:43:02.599Z,46.81
2018-05-13T12:44:02.550Z,47.10
2018-05-13T12:45:02.485Z,47.10
2018-05-13T12:46:02.413Z,47.10
2018-05-13T12:47:02.357Z,46.81
2018-05-13T12:48:02.284Z,47.10
2018-05-13T12:49:02.217Z,46.72
2018-05-13T12:50:02.148Z,46.72
2018-05-13T12:51:02.087Z,46.74
2018-05-13T12:52:02.021Z,46.84